Time;durP1;ratioP1;P1;durP2;ratioP2;P2;SDS_P1;SDS_P2;PMS_P1;PMS_P2;Temp;Humidity;BMP_temperature;BMP_pressure;BME280_temperature;BME280_humidity;BME280_pressure;Samples;Min_cycle;Max_cycle;Signal;HPM_P1;HPM_P2
2022/08/21 00:01:25;;;;;;;;;;;;;;;;;;8425057;27;27176;-73
2022/08/21 00:05:25;;;;;;;;;;;;;;;;;;8422261;27;28480;-73
2022/08/21 00:09:25;;;;;;;;;;;;;;;;;;8428774;27;27242;-73
2022/08/21 00:13:25;;;;;;;;;;;;;;;;;;8425924;27;28363;-73
2022/08/21 00:17:25;;;;;;;;;;;;;;;;;;8423113;27;27359;-73
2022/08/21 00:21:26;;;;;;;;;;;;;;;;;;8423332;27;27340;-74
2022/08/21 00:25:26;;;;;;;;;;;;;;;;;;8416955;27;27204;-73
2022/08/21 00:29:26;;;;;;;;;;;;;;;;;;8427719;27;27128;-74
2022/08/21 00:33:26;;;;;;;;;;;;;;;;;;8424283;27;28395;-73
2022/08/21 00:37:28;;;;;;;;;;;;;;;;;;8426390;27;27422;-73
2022/08/21 00:41:29;;;;;;;;;;;;;;;;;;8419253;27;27206;-73
2022/08/21 00:45:29;;;;;;;;;;;;;;;;;;8412561;27;27337;-73
2022/08/21 00:49:30;;;;;;;;;;;;;;;;;;8416904;27;28299;-73
2022/08/21 00:53:30;;;;;;;;;;;;;;;;;;8424281;27;28509;-73
2022/08/21 00:57:30;;;;;;;;;;;;;;;;;;8423716;27;28009;-73
2022/08/21 01:01:31;;;;;;;;;;;;;;;;;;8429319;27;27247;-73
2022/08/21 01:05:31;;;;;;;;;;;;;;;;;;8426122;27;28196;-74
2022/08/21 01:09:31;;;;;;;;;;;;;;;;;;8423588;27;28203;-73
2022/08/21 01:13:31;;;;;;;;;;;;;;;;;;8423490;27;28535;-73
2022/08/21 01:17:31;;;;;;;;;;;;;;;;;;8421760;27;27460;-73
2022/08/21 01:21:33;;;;;;;;;;;;;;;;;;8419789;27;28280;-73
2022/08/21 01:25:33;;;;;;;;;;;;;;;;;;8419195;27;27239;-73
2022/08/21 01:29:34;;;;;;;;;;;;;;;;;;8423088;27;28477;-73
2022/08/21 01:33:34;;;;;;;;;;;;;;;;;;8456099;27;28150;-73
2022/08/21 01:37:34;;;;;;;;;;;;;;;;;;8434488;27;28089;-73
2022/08/21 01:41:34;;;;;;;;;;;;;;;;;;8425483;27;27219;-73
2022/08/21 01:45:34;;;;;;;;;;;;;;;;;;8424110;27;27469;-73
2022/08/21 01:49:34;;;;;;;;;;;;;;;;;;8424205;27;27264;-73
2022/08/21 01:53:36;;;;;;;;;;;;;;;;;;8426844;27;27198;-73
2022/08/21 01:57:36;;;;;;;;;;;;;;;;;;8425850;27;27305;-73
2022/08/21 02:01:37;;;;;;;;;;;;;;;;;;8424881;27;27332;-73
2022/08/21 02:05:37;;;;;;;;;;;;;;;;;;8435146;27;28436;-73
2022/08/21 02:09:37;;;;;;;;;;;;;;;;;;8426297;27;27281;-73
2022/08/21 02:13:37;;;;;;;;;;;;;;;;;;8423281;27;27689;-73
2022/08/21 02:17:37;;;;;;;;;;;;;;;;;;8439611;27;28240;-73
2022/08/21 02:21:37;;;;;;;;;;;;;;;;;;8422374;27;27861;-73
2022/08/21 02:25:37;;;;;;;;;;;;;;;;;;8427035;27;27270;-72
2022/08/21 02:29:40;;;;;;;;;;;;;;;;;;8435218;27;28074;-73
2022/08/21 02:33:42;;;;;;;;;;;;;;;;;;8431381;27;27916;-74
2022/08/21 02:37:42;;;;;;;;;;;;;;;;;;8428165;27;28424;-73
2022/08/21 02:41:43;;;;;;;;;;;;;;;;;;8436033;27;28314;-73
2022/08/21 02:45:43;;;;;;;;;;;;;;;;;;8434847;27;27226;-73
2022/08/21 02:49:43;;;;;;;;;;;;;;;;;;8437672;27;27304;-73
2022/08/21 02:53:43;;;;;;;;;;;;;;;;;;8439008;27;28582;-73
2022/08/21 02:57:43;;;;;;;;;;;;;;;;;;8435526;27;27127;-73
2022/08/21 03:01:46;;;;;;;;;;;;;;;;;;8430110;27;28195;-72
2022/08/21 03:05:46;;;;;;;;;;;;;;;;;;8424925;27;27981;-72
2022/08/21 03:09:46;;;;;;;;;;;;;;;;;;8428025;27;27428;-72
2022/08/21 03:13:47;;;;;;;;;;;;;;;;;;8423295;27;28359;-72
2022/08/21 03:17:47;;;;;;;;;;;;;;;;;;8429193;27;28751;-72
2022/08/21 03:21:47;;;;;;;;;;;;;;;;;;8427153;27;28252;-72
2022/08/21 03:25:48;;;;;;;;;;;;;;;;;;8429163;27;27985;-72
2022/08/21 03:29:48;;;;;;;;;;;;;;;;;;8425203;27;27388;-72
2022/08/21 03:33:48;;;;;;;;;;;;;;;;;;8426483;27;27153;-72
2022/08/21 03:37:48;;;;;;;;;;;;;;;;;;8426849;27;27251;-73
2022/08/21 03:41:48;;;;;;;;;;;;;;;;;;8423155;27;27352;-72
2022/08/21 03:45:48;;;;;;;;;;;;;;;;;;8427623;27;27409;-72
2022/08/21 03:49:49;;;;;;;;;;;;;;;;;;8426279;27;27423;-73
2022/08/21 03:53:49;;;;;;;;;;;;;;;;;;8424913;27;27406;-72
2022/08/21 03:57:49;;;;;;;;;;;;;;;;;;8423542;27;27286;-73
2022/08/21 04:01:50;;;;;;;;;;;;;;;;;;8430445;27;27362;-72
2022/08/21 04:05:50;;;;;;;;;;;;;;;;;;8428997;27;27407;-72
2022/08/21 04:09:50;;;;;;;;;;;;;;;;;;8428394;27;27480;-72
2022/08/21 04:13:50;;;;;;;;;;;;;;;;;;8426599;27;27077;-72
2022/08/21 04:17:50;;;;;;;;;;;;;;;;;;8422728;27;27196;-72
2022/08/21 04:21:50;;;;;;;;;;;;;;;;;;8426916;27;27891;-72
2022/08/21 04:25:51;;;;;;;;;;;;;;;;;;8425077;27;28089;-72
2022/08/21 04:29:51;;;;;;;;;;;;;;;;;;8427705;27;27493;-72
2022/08/21 04:33:51;;;;;;;;;;;;;;;;;;8423300;27;27511;-72
2022/08/21 04:37:51;;;;;;;;;;;;;;;;;;8427900;27;28344;-72
2022/08/21 04:41:53;;;;;;;;;;;;;;;;;;8421113;27;47720;-72
2022/08/21 04:45:56;;;;;;;;;;;;;;;;;;8428282;27;29041;-72
2022/08/21 04:49:56;;;;;;;;;;;;;;;;;;8426729;27;27214;-72
2022/08/21 04:53:56;;;;;;;;;;;;;;;;;;8424329;27;27444;-72
2022/08/21 04:57:56;;;;;;;;;;;;;;;;;;8429480;27;27237;-72
2022/08/21 05:01:57;;;;;;;;;;;;;;;;;;8427631;27;27279;-72
2022/08/21 05:05:57;;;;;;;;;;;;;;;;;;8427668;27;28272;-72
2022/08/21 05:09:57;;;;;;;;;;;;;;;;;;8423232;27;27353;-72
2022/08/21 05:13:57;;;;;;;;;;;;;;;;;;8420670;27;27658;-72
2022/08/21 05:17:58;;;;;;;;;;;;;;;;;;8419035;27;27887;-72
2022/08/21 05:21:58;;;;;;;;;;;;;;;;;;8420715;27;27370;-72
2022/08/21 05:25:58;;;;;;;;;;;;;;;;;;8421931;27;27084;-72
2022/08/21 05:29:58;;;;;;;;;;;;;;;;;;8424752;27;27591;-72
2022/08/21 05:33:58;;;;;;;;;;;;;;;;;;8419391;27;27465;-72
2022/08/21 05:38:01;;;;;;;;;;;;;;;;;;8422434;27;27454;-72
2022/08/21 05:42:01;;;;;;;;;;;;;;;;;;8426623;27;28444;-72
2022/08/21 05:46:01;;;;;;;;;;;;;;;;;;8423901;27;27354;-72
2022/08/21 05:50:01;;;;;;;;;;;;;;;;;;8427229;27;27203;-72
2022/08/21 05:54:02;;;;;;;;;;;;;;;;;;8422544;27;27324;-72
2022/08/21 05:58:02;;;;;;;;;;;;;;;;;;8434930;27;28035;-72
2022/08/21 06:02:02;;;;;;;;;;;;;;;;;;8434478;27;27517;-72
2022/08/21 06:06:02;;;;;;;;;;;;;;;;;;8433227;27;28104;-72
2022/08/21 06:10:02;;;;;;;;;;;;;;;;;;8427783;27;27837;-72
2022/08/21 06:14:02;;;;;;;;;;;;;;;;;;8421586;27;27628;-72
2022/08/21 06:18:02;;;;;;;;;;;;;;;;;;8428525;27;27768;-72
2022/08/21 06:22:03;;;;;;;;;;;;;;;;;;8425812;27;27797;-72
2022/08/21 06:26:04;;;;;;;;;;;;;;;;;;8426617;27;27144;-73
2022/08/21 06:30:04;;;;;;;;;;;;;;;;;;8430302;27;27462;-72
2022/08/21 06:34:04;;;;;;;;;;;;;;;;;;8430255;27;28506;-72
2022/08/21 06:38:04;;;;;;;;;;;;;;;;;;8424608;27;27622;-73
2022/08/21 06:42:04;;;;;;;;;;;;;;;;;;8426879;27;27389;-73
2022/08/21 06:46:05;;;;;;;;;;;;;;;;;;8431033;27;27807;-72
2022/08/21 06:50:07;;;;;;;;;;;;;;;;;;8430336;27;27982;-73
2022/08/21 06:54:07;;;;;;;;;;;;;;;;;;8424889;27;27228;-72
2022/08/21 06:58:07;;;;;;;;;;;;;;;;;;8426762;27;28974;-72
2022/08/21 07:02:07;;;;;;;;;;;;;;;;;;8458767;27;29510;-73
2022/08/21 07:06:07;;;;;;;;;;;;;;;;;;8423853;27;27778;-73
2022/08/21 07:10:07;;;;;;;;;;;;;;;;;;8418823;27;28368;-73
2022/08/21 07:14:08;;;;;;;;;;;;;;;;;;8427089;27;27268;-72
2022/08/21 07:18:08;;;;;;;;;;;;;;;;;;8424039;27;27120;-73
2022/08/21 07:22:08;;;;;;;;;;;;;;;;;;8428696;27;27241;-73
2022/08/21 07:26:08;;;;;;;;;;;;;;;;;;8427078;27;27254;-72
2022/08/21 07:30:08;;;;;;;;;;;;;;;;;;8425843;27;28123;-73
2022/08/21 07:34:09;;;;;;;;;;;;;;;;;;8427870;27;27342;-73
2022/08/21 07:38:09;;;;;;;;;;;;;;;;;;8427574;27;27159;-72
2022/08/21 07:42:10;;;;;;;;;;;;;;;;;;8431660;27;27216;-72
2022/08/21 07:46:10;;;;;;;;;;;;;;;;;;8426436;27;28273;-73
2022/08/21 07:50:11;;;;;;;;;;;;;;;;;;8420058;27;27368;-72
2022/08/21 07:54:11;;;;;;;;;;;;;;;;;;8426172;27;27243;-72
2022/08/21 07:58:11;;;;;;;;;;;;;;;;;;8424726;27;27402;-72
2022/08/21 08:02:11;;;;;;;;;;;;;;;;;;8420741;27;27713;-72
2022/08/21 08:06:12;;;;;;;;;;;;;;;;;;8417989;27;28192;-71
2022/08/21 08:10:12;;;;;;;;;;;;;;;;;;8417510;27;28570;-72
2022/08/21 08:14:12;;;;;;;;;;;;;;;;;;8415356;27;27371;-72
2022/08/21 08:18:13;;;;;;;;;;;;;;;;;;8426294;27;27302;-72
2022/08/21 08:22:14;;;;;;;;;;;;;;;;;;8427303;27;27889;-72
2022/08/21 08:26:15;;;;;;;;;;;;;;;;;;8420814;27;28145;-72
2022/08/21 08:30:15;;;;;;;;;;;;;;;;;;8428305;27;27341;-72
2022/08/21 08:34:16;;;;;;;;;;;;;;;;;;8418821;27;27201;-72
2022/08/21 08:38:18;;;;;;;;;;;;;;;;;;8424310;27;27268;-72
2022/08/21 08:42:18;;;;;;;;;;;;;;;;;;8422987;27;27307;-72
2022/08/21 08:46:19;;;;;;;;;;;;;;;;;;8429068;27;27802;-73
2022/08/21 08:50:21;;;;;;;;;;;;;;;;;;8428357;27;28376;-71
2022/08/21 08:54:21;;;;;;;;;;;;;;;;;;8421345;27;27251;-72
2022/08/21 08:58:21;;;;;;;;;;;;;;;;;;8421591;27;27983;-72
2022/08/21 09:02:23;;;;;;;;;;;;;;;;;;8429750;27;28151;-73
2022/08/21 09:06:24;;;;;;;;;;;;;;;;;;8434512;27;27145;-73
2022/08/21 09:10:24;;;;;;;;;;;;;;;;;;8421147;27;28290;-74
2022/08/21 09:14:24;;;;;;;;;;;;;;;;;;8420711;27;27422;-72
2022/08/21 09:18:24;;;;;;;;;;;;;;;;;;8428369;27;27172;-71
2022/08/21 09:22:25;;;;;;;;;;;;;;;;;;8422413;27;27927;-71
2022/08/21 09:26:27;;;;;;;;;;;;;;;;;;8421316;27;28359;-72
2022/08/21 09:30:28;;;;;;;;;;;;;;;;;;8425795;27;28336;-72
2022/08/21 09:34:28;;;;;;;;;;;;;;;;;;8424599;27;27411;-72
2022/08/21 09:38:28;;;;;;;;;;;;;;;;;;8423734;27;27127;-73
2022/08/21 09:42:29;;;;;;;;;;;;;;;;;;8427832;27;28505;-73
2022/08/21 09:46:29;;;;;;;;;;;;;;;;;;8425778;27;27138;-73
2022/08/21 09:50:30;;;;;;;;;;;;;;;;;;8415085;27;27227;-74
2022/08/21 09:54:30;;;;;;;;;;;;;;;;;;8417922;27;28046;-74
2022/08/21 09:58:30;;;;;;;;;;;;;;;;;;8425918;27;27322;-74
2022/08/21 10:02:30;;;;;;;;;;;;;;;;;;8419947;27;28179;-74
2022/08/21 10:06:31;;;;;;;;;;;;;;;;;;8426454;27;27789;-74
2022/08/21 10:10:31;;;;;;;;;;;;;;;;;;8418720;27;27255;-73
2022/08/21 10:14:31;;;;;;;;;;;;;;;;;;8420453;27;28166;-73
2022/08/21 10:18:31;;;;;;;;;;;;;;;;;;7495441;27;10000260;-73
2022/08/21 10:22:31;;;;;;;;;;;;;;;;;;8416604;27;27281;-74
2022/08/21 10:26:32;;;;;;;;;;;;;;;;;;8417023;27;27453;-74
2022/08/21 10:30:32;;;;;;;;;;;;;;;;;;8411477;27;27350;-74
2022/08/21 10:34:32;;;;;;;;;;;;;;;;;;8414098;27;27396;-73
2022/08/21 10:38:32;;;;;;;;;;;;;;;;;;8407934;27;27371;-73
2022/08/21 10:42:32;;;;;;;;;;;;;;;;;;8412787;27;27604;-73
2022/08/21 10:46:33;;;;;;;;;;;;;;;;;;8414996;27;27244;-73
2022/08/21 10:50:33;;;;;;;;;;;;;;;;;;8414431;27;27618;-74
2022/08/21 10:54:33;;;;;;;;;;;;;;;;;;8415516;27;27448;-74
2022/08/21 10:58:33;;;;;;;;;;;;;;;;;;8419059;27;27584;-74
2022/08/21 11:02:33;;;;;;;;;;;;;;;;;;8413841;27;27488;-74
2022/08/21 11:06:33;;;;;;;;;;;;;;;;;;8421957;27;28573;-74
2022/08/21 11:10:34;;;;;;;;;;;;;;;;;;8413473;27;27203;-74
2022/08/21 11:14:34;;;;;;;;;;;;;;;;;;8414569;27;27497;-74
2022/08/21 11:18:34;;;;;;;;;;;;;;;;;;8409477;27;27416;-74
2022/08/21 11:22:34;;;;;;;;;;;;;;;;;;8414647;27;27412;-74
2022/08/21 11:26:35;;;;;;;;;;;;;;;;;;8415484;27;27875;-74
2022/08/21 11:30:35;;;;;;;;;;;;;;;;;;8413694;27;27506;-74
2022/08/21 11:34:35;;;;;;;;;;;;;;;;;;8415186;27;28237;-74
2022/08/21 11:38:35;;;;;;;;;;;;;;;;;;8417009;27;28264;-74
2022/08/21 11:42:36;;;;;;;;;;;;;;;;;;8408952;27;27985;-75
2022/08/21 11:46:36;;;;;;;;;;;;;;;;;;8409005;27;27560;-75
2022/08/21 11:50:36;;;;;;;;;;;;;;;;;;8404726;27;27407;-75
2022/08/21 11:54:36;;;;;;;;;;;;;;;;;;8405460;27;27765;-75
2022/08/21 11:58:36;;;;;;;;;;;;;;;;;;8398147;27;28078;-76
2022/08/21 12:02:36;;;;;;;;;;;;;;;;;;8403828;27;27949;-76
2022/08/21 12:06:37;;;;;;;;;;;;;;;;;;8406258;27;28525;-76
2022/08/21 12:10:37;;;;;;;;;;;;;;;;;;8403455;27;27527;-76
2022/08/21 12:14:37;;;;;;;;;;;;;;;;;;8410408;27;27615;-75
2022/08/21 12:18:40;;;;;;;;;;;;;;;;;;8402588;27;27950;-76
2022/08/21 12:22:40;;;;;;;;;;;;;;;;;;8404794;27;27927;-76
2022/08/21 12:26:40;;;;;;;;;;;;;;;;;;8406586;27;28398;-76
2022/08/21 12:30:40;;;;;;;;;;;;;;;;;;8401521;27;27263;-76
2022/08/21 12:34:40;;;;;;;;;;;;;;;;;;8404012;27;27516;-76
2022/08/21 12:38:41;;;;;;;;;;;;;;;;;;8404472;27;27945;-76
2022/08/21 12:42:41;;;;;;;;;;;;;;;;;;8408963;27;27865;-76
2022/08/21 12:46:42;;;;;;;;;;;;;;;;;;8411126;27;27626;-75
2022/08/21 12:50:42;;;;;;;;;;;;;;;;;;8399866;27;28517;-76
2022/08/21 12:54:42;;;;;;;;;;;;;;;;;;8407638;27;28076;-76
2022/08/21 12:58:42;;;;;;;;;;;;;;;;;;8403627;27;27986;-75
2022/08/21 13:02:42;;;;;;;;;;;;;;;;;;8404865;27;28088;-75
2022/08/21 13:06:42;;;;;;;;;;;;;;;;;;8410584;27;28174;-76
2022/08/21 13:10:43;;;;;;;;;;;;;;;;;;8401816;27;27998;-76
2022/08/21 13:14:43;;;;;;;;;;;;;;;;;;8403355;27;27460;-76
2022/08/21 13:18:43;;;;;;;;;;;;;;;;;;8403246;27;27936;-76
2022/08/21 13:22:43;;;;;;;;;;;;;;;;;;8402908;27;27964;-75
2022/08/21 13:26:43;;;;;;;;;;;;;;;;;;8404166;27;28497;-76
2022/08/21 13:30:46;;;;;;;;;;;;;;;;;;8402346;27;27568;-75
2022/08/21 13:34:49;;;;;;;;;;;;;;;;;;8407075;27;28144;-75
2022/08/21 13:38:49;;;;;;;;;;;;;;;;;;8404227;27;27468;-75
2022/08/21 13:42:49;;;;;;;;;;;;;;;;;;8400099;27;27521;-75
2022/08/21 13:46:50;;;;;;;;;;;;;;;;;;8403985;27;27844;-76
2022/08/21 13:50:50;;;;;;;;;;;;;;;;;;8399492;27;27534;-75
2022/08/21 13:54:50;;;;;;;;;;;;;;;;;;8404936;27;28160;-75
2022/08/21 13:58:50;;;;;;;;;;;;;;;;;;8399523;27;28201;-75
2022/08/21 14:02:52;;;;;;;;;;;;;;;;;;8406914;27;27476;-75
2022/08/21 14:06:52;;;;;;;;;;;;;;;;;;8410187;27;28352;-74
2022/08/21 14:10:52;;;;;;;;;;;;;;;;;;8403081;27;28562;-75
2022/08/21 14:14:53;;;;;;;;;;;;;;;;;;8403832;27;28025;-75
2022/08/21 14:18:53;;;;;;;;;;;;;;;;;;8410859;27;27533;-75
2022/08/21 14:22:53;;;;;;;;;;;;;;;;;;8415556;27;27793;-75
2022/08/21 14:26:53;;;;;;;;;;;;;;;;;;8421814;27;27235;-75
2022/08/21 14:30:53;;;;;;;;;;;;;;;;;;8414816;27;28419;-75
2022/08/21 14:34:56;;;;;;;;;;;;;;;;;;8417252;27;27933;-75
2022/08/21 14:38:56;;;;;;;;;;;;;;;;;;8420869;27;28249;-75
2022/08/21 14:42:58;;;;;;;;;;;;;;;;;;8420445;27;27683;-76
2022/08/21 14:46:58;;;;;;;;;;;;;;;;;;8420204;27;27467;-75
2022/08/21 14:50:59;;;;;;;;;;;;;;;;;;8422853;27;27229;-75
2022/08/21 14:54:59;;;;;;;;;;;;;;;;;;8418969;27;27974;-75
2022/08/21 14:58:59;;;;;;;;;;;;;;;;;;7511493;27;10000137;-75
2022/08/21 15:02:59;;;;;;;;;;;;;;;;;;8414240;27;27565;-76
2022/08/21 15:06:59;;;;;;;;;;;;;;;;;;8419876;27;27575;-75
2022/08/21 15:10:59;;;;;;;;;;;;;;;;;;8413924;27;27313;-76
2022/08/21 15:15:00;;;;;;;;;;;;;;;;;;8415935;27;27749;-76
2022/08/21 15:19:00;;;;;;;;;;;;;;;;;;8416146;27;27358;-75
2022/08/21 15:23:00;;;;;;;;;;;;;;;;;;8423230;27;27462;-75
2022/08/21 15:27:00;;;;;;;;;;;;;;;;;;8420412;27;27309;-76
2022/08/21 15:31:01;;;;;;;;;;;;;;;;;;8423607;27;27551;-76
2022/08/21 15:35:02;;;;;;;;;;;;;;;;;;8426820;27;27537;-76
2022/08/21 15:39:02;;;;;;;;;;;;;;;;;;8425353;27;27406;-75
2022/08/21 15:43:02;;;;;;;;;;;;;;;;;;8429532;27;27331;-75
2022/08/21 15:47:02;;;;;;;;;;;;;;;;;;8425375;27;27282;-75
2022/08/21 15:51:02;;;;;;;;;;;;;;;;;;8419205;27;27200;-75
2022/08/21 15:55:02;;;;;;;;;;;;;;;;;;8427079;27;27777;-75
2022/08/21 15:59:03;;;;;;;;;;;;;;;;;;8415789;27;27623;-75
2022/08/21 16:03:03;;;;;;;;;;;;;;;;;;8423190;27;27575;-75
2022/08/21 16:07:05;;;;;;;;;;;;;;;;;;8424532;27;27201;-75
2022/08/21 16:11:05;;;;;;;;;;;;;;;;;;8417806;27;27480;-75
2022/08/21 16:15:06;;;;;;;;;;;;;;;;;;8424196;27;27395;-75
2022/08/21 16:19:09;;;;;;;;;;;;;;;;;;8417820;27;27407;-75
2022/08/21 16:23:09;;;;;;;;;;;;;;;;;;8415829;27;27462;-75
2022/08/21 16:27:09;;;;;;;;;;;;;;;;;;8417674;27;27644;-75
2022/08/21 16:31:09;;;;;;;;;;;;;;;;;;8423217;27;27336;-75
2022/08/21 16:35:09;;;;;;;;;;;;;;;;;;8427504;27;27390;-74
2022/08/21 16:39:09;;;;;;;;;;;;;;;;;;8414424;27;27761;-75
2022/08/21 16:43:12;;;;;;;;;;;;;;;;;;8419872;27;27410;-75
2022/08/21 16:47:12;;;;;;;;;;;;;;;;;;8420377;27;27933;-75
2022/08/21 16:51:12;;;;;;;;;;;;;;;;;;8416329;27;27541;-76
2022/08/21 16:55:12;;;;;;;;;;;;;;;;;;8411716;27;27673;-75
2022/08/21 16:59:13;;;;;;;;;;;;;;;;;;8415775;27;28120;-76
2022/08/21 17:03:15;;;;;;;;;;;;;;;;;;8417525;27;27524;-75
2022/08/21 17:07:15;;;;;;;;;;;;;;;;;;8419962;27;27530;-76
2022/08/21 17:11:15;;;;;;;;;;;;;;;;;;8412376;27;28303;-76
2022/08/21 17:15:15;;;;;;;;;;;;;;;;;;8417444;27;28380;-76
2022/08/21 17:19:15;;;;;;;;;;;;;;;;;;8416319;27;28323;-76
2022/08/21 17:23:16;;;;;;;;;;;;;;;;;;8414632;27;27895;-76
2022/08/21 17:27:16;;;;;;;;;;;;;;;;;;8412992;27;27634;-76
2022/08/21 17:31:16;;;;;;;;;;;;;;;;;;8419050;27;28713;-75
2022/08/21 17:35:16;;;;;;;;;;;;;;;;;;8420070;27;27590;-75
2022/08/21 17:39:16;;;;;;;;;;;;;;;;;;8426142;27;28024;-75
2022/08/21 17:43:17;;;;;;;;;;;;;;;;;;8428393;27;27514;-75
2022/08/21 17:47:17;;;;;;;;;;;;;;;;;;8424705;27;27782;-75
2022/08/21 17:51:19;;;;;;;;;;;;;;;;;;8420911;27;27436;-74
2022/08/21 17:55:19;;;;;;;;;;;;;;;;;;8424701;27;27679;-76
2022/08/21 17:59:20;;;;;;;;;;;;;;;;;;8426771;27;27583;-75
2022/08/21 18:03:20;;;;;;;;;;;;;;;;;;8426736;27;27411;-76
2022/08/21 18:07:20;;;;;;;;;;;;;;;;;;8422693;27;27358;-76
2022/08/21 18:11:20;;;;;;;;;;;;;;;;;;8424292;27;27699;-76
2022/08/21 18:15:20;;;;;;;;;;;;;;;;;;8422948;27;27760;-75
2022/08/21 18:19:24;;;;;;;;;;;;;;;;;;8421499;27;27938;-76
2022/08/21 18:23:24;;;;;;;;;;;;;;;;;;8420571;27;28469;-74
2022/08/21 18:27:24;;;;;;;;;;;;;;;;;;8423526;27;27424;-75
2022/08/21 18:31:25;;;;;;;;;;;;;;;;;;8419198;27;28569;-75
2022/08/21 18:35:26;;;;;;;;;;;;;;;;;;8421383;27;29438;-74
2022/08/21 18:39:26;;;;;;;;;;;;;;;;;;8424603;27;28307;-75
2022/08/21 18:43:26;;;;;;;;;;;;;;;;;;8426462;27;27755;-75
2022/08/21 18:47:27;;;;;;;;;;;;;;;;;;8424223;27;28440;-75
2022/08/21 18:51:30;;;;;;;;;;;;;;;;;;8420749;27;27399;-77
2022/08/21 18:55:30;;;;;;;;;;;;;;;;;;8424068;27;28134;-75
2022/08/21 18:59:30;;;;;;;;;;;;;;;;;;8426469;27;27484;-75
2022/08/21 19:03:30;;;;;;;;;;;;;;;;;;8422697;27;27905;-75
2022/08/21 19:07:33;;;;;;;;;;;;;;;;;;8424707;27;27393;-75
2022/08/21 19:11:33;;;;;;;;;;;;;;;;;;8425863;27;28194;-75
2022/08/21 19:15:35;;;;;;;;;;;;;;;;;;8423329;27;28439;-75
2022/08/21 19:19:36;;;;;;;;;;;;;;;;;;8422669;27;27811;-74
2022/08/21 19:23:38;;;;;;;;;;;;;;;;;;8421062;27;27262;-74
2022/08/21 19:27:40;;;;;;;;;;;;;;;;;;8419771;27;28509;-77
2022/08/21 19:31:42;;;;;;;;;;;;;;;;;;8415036;27;27459;-75
2022/08/21 19:35:42;;;;;;;;;;;;;;;;;;8418140;27;28443;-74
2022/08/21 19:39:43;;;;;;;;;;;;;;;;;;8417115;27;28179;-74
2022/08/21 19:43:43;;;;;;;;;;;;;;;;;;8419111;27;27479;-74
2022/08/21 19:47:43;;;;;;;;;;;;;;;;;;8419270;27;27753;-77
2022/08/21 19:51:43;;;;;;;;;;;;;;;;;;8417532;27;28189;-78
2022/08/21 19:55:43;;;;;;;;;;;;;;;;;;8419068;27;27524;-76
2022/08/21 19:59:44;;;;;;;;;;;;;;;;;;8417224;27;28291;-77
2022/08/21 20:03:46;;;;;;;;;;;;;;;;;;8417875;27;27641;-75
2022/08/21 20:07:47;;;;;;;;;;;;;;;;;;8419128;27;29807;-76
2022/08/21 20:11:47;;;;;;;;;;;;;;;;;;8415468;27;27453;-74
2022/08/21 20:15:47;;;;;;;;;;;;;;;;;;8416287;27;27401;-74
2022/08/21 20:19:47;;;;;;;;;;;;;;;;;;8412682;27;27315;-75
2022/08/21 20:23:47;;;;;;;;;;;;;;;;;;8422884;27;27204;-74
2022/08/21 20:27:47;;;;;;;;;;;;;;;;;;8421332;27;27800;-77
2022/08/21 20:31:48;;;;;;;;;;;;;;;;;;8416194;27;27326;-75
2022/08/21 20:35:50;;;;;;;;;;;;;;;;;;8416591;27;27636;-74
2022/08/21 20:39:50;;;;;;;;;;;;;;;;;;8421239;27;27927;-74
2022/08/21 20:43:50;;;;;;;;;;;;;;;;;;8421885;27;27222;-75
2022/08/21 20:47:50;;;;;;;;;;;;;;;;;;8419295;27;27437;-74
2022/08/21 20:51:50;;;;;;;;;;;;;;;;;;8416475;27;27416;-74
2022/08/21 20:55:50;;;;;;;;;;;;;;;;;;8421883;27;28264;-74
2022/08/21 20:59:50;;;;;;;;;;;;;;;;;;8410457;27;27145;-75
2022/08/21 21:03:51;;;;;;;;;;;;;;;;;;8417111;27;27102;-75
2022/08/21 21:07:53;;;;;;;;;;;;;;;;;;8418073;27;27220;-75
2022/08/21 21:11:53;;;;;;;;;;;;;;;;;;8408958;27;27318;-76
2022/08/21 21:15:53;;;;;;;;;;;;;;;;;;8413093;27;27341;-78
2022/08/21 21:19:53;;;;;;;;;;;;;;;;;;8417936;27;27516;-75
2022/08/21 21:23:54;;;;;;;;;;;;;;;;;;8417579;27;27824;-75
2022/08/21 21:27:54;;;;;;;;;;;;;;;;;;8420640;27;27604;-74
2022/08/21 21:31:54;;;;;;;;;;;;;;;;;;8415468;27;27171;-75
2022/08/21 21:35:54;;;;;;;;;;;;;;;;;;8421745;27;27943;-77
2022/08/21 21:39:54;;;;;;;;;;;;;;;;;;8424342;27;27487;-75
2022/08/21 21:43:54;;;;;;;;;;;;;;;;;;8425681;27;27112;-75
2022/08/21 21:47:54;;;;;;;;;;;;;;;;;;8426296;27;27410;-75
2022/08/21 21:51:55;;;;;;;;;;;;;;;;;;8424404;27;28162;-74
2022/08/21 21:55:55;;;;;;;;;;;;;;;;;;8422529;27;27975;-74
2022/08/21 21:59:55;;;;;;;;;;;;;;;;;;8418944;27;27209;-74
2022/08/21 22:03:55;;;;;;;;;;;;;;;;;;8421979;27;28217;-74
2022/08/21 22:07:56;;;;;;;;;;;;;;;;;;8422048;27;27506;-74
2022/08/21 22:11:59;;;;;;;;;;;;;;;;;;8425484;27;27963;-75
2022/08/21 22:15:59;;;;;;;;;;;;;;;;;;8422751;27;27932;-75
2022/08/21 22:20:03;;;;;;;;;;;;;;;;;;8421525;27;28407;-75
2022/08/21 22:24:03;;;;;;;;;;;;;;;;;;8425371;27;27626;-75
2022/08/21 22:28:03;;;;;;;;;;;;;;;;;;8426602;27;28025;-74
2022/08/21 22:32:04;;;;;;;;;;;;;;;;;;8424582;27;27249;-74
2022/08/21 22:36:05;;;;;;;;;;;;;;;;;;8423776;27;27544;-74
2022/08/21 22:40:06;;;;;;;;;;;;;;;;;;8423232;27;27222;-75
2022/08/21 22:44:06;;;;;;;;;;;;;;;;;;8421685;27;27742;-74
2022/08/21 22:48:06;;;;;;;;;;;;;;;;;;8426538;27;27411;-74
2022/08/21 22:52:06;;;;;;;;;;;;;;;;;;8418283;27;27586;-75
2022/08/21 22:56:06;;;;;;;;;;;;;;;;;;8420112;27;28239;-75
2022/08/21 23:00:09;;;;;;;;;;;;;;;;;;8422312;27;27730;-74
2022/08/21 23:04:11;;;;;;;;;;;;;;;;;;8425001;27;27601;-75
2022/08/21 23:08:11;;;;;;;;;;;;;;;;;;8425779;27;28608;-74
2022/08/21 23:12:11;;;;;;;;;;;;;;;;;;8420511;27;28641;-74
2022/08/21 23:16:11;;;;;;;;;;;;;;;;;;8423011;27;28277;-74
2022/08/21 23:20:11;;;;;;;;;;;;;;;;;;8419866;27;28111;-75
2022/08/21 23:24:12;;;;;;;;;;;;;;;;;;8421998;27;27954;-75
2022/08/21 23:28:12;;;;;;;;;;;;;;;;;;8421176;27;27448;-74
2022/08/21 23:32:12;;;;;;;;;;;;;;;;;;8420844;27;27467;-74
2022/08/21 23:40:38;;;;;;;;;;;;;;;;;;8414386;27;27185;-76
2022/08/21 23:44:39;;;;;;;;;;;;;;;;;;8416819;27;27457;-77
2022/08/21 23:48:39;;;;;;;;;;;;;;;;;;8423347;27;27394;-76
2022/08/21 23:52:39;;;;;;;;;;;;;;;;;;8422812;27;27992;-75
2022/08/21 23:56:39;;;;;;;;;;;;;;;;;;8428751;27;28671;-76
